sensor_id;sensor_type;location;lat;lon;timestamp;P1;durP1;ratioP1;P2;durP2;ratioP2
15528;SDS011;7866;52.280;9.500;2023-04-15T00:02:55;5.07;;;4.67;;
15528;SDS011;7866;52.280;9.500;2023-04-15T00:07:57;4.93;;;4.43;;
15528;SDS011;7866;52.280;9.500;2023-04-15T00:12:59;4.47;;;4.07;;
15528;SDS011;7866;52.280;9.500;2023-04-15T00:18:03;6.57;;;3.70;;
15528;SDS011;7866;52.280;9.500;2023-04-15T00:23:05;5.13;;;3.67;;
15528;SDS011;7866;52.280;9.500;2023-04-15T00:28:06;4.37;;;3.97;;
15528;SDS011;7866;52.280;9.500;2023-04-15T00:33:10;4.73;;;4.30;;
15528;SDS011;7866;52.280;9.500;2023-04-15T00:38:12;4.77;;;3.80;;
15528;SDS011;7866;52.280;9.500;2023-04-15T00:43:14;4.27;;;3.97;;
15528;SDS011;7866;52.280;9.500;2023-04-15T00:48:18;12.17;;;6.70;;
15528;SDS011;7866;52.280;9.500;2023-04-15T00:53:20;6.53;;;5.20;;
15528;SDS011;7866;52.280;9.500;2023-04-15T00:58:22;4.43;;;4.03;;
15528;SDS011;7866;52.280;9.500;2023-04-15T01:03:26;5.60;;;3.50;;
15528;SDS011;7866;52.280;9.500;2023-04-15T01:08:30;4.30;;;3.90;;
15528;SDS011;7866;52.280;9.500;2023-04-15T01:13:31;4.77;;;4.30;;
15528;SDS011;7866;52.280;9.500;2023-04-15T01:18:36;4.60;;;4.20;;
15528;SDS011;7866;52.280;9.500;2023-04-15T01:23:38;4.73;;;4.33;;
15528;SDS011;7866;52.280;9.500;2023-04-15T01:28:41;4.00;;;3.47;;
15528;SDS011;7866;52.280;9.500;2023-04-15T01:33:43;4.20;;;3.80;;
15528;SDS011;7866;52.280;9.500;2023-04-15T01:38:46;5.27;;;4.87;;
15528;SDS011;7866;52.280;9.500;2023-04-15T01:43:49;5.23;;;4.57;;
15528;SDS011;7866;52.280;9.500;2023-04-15T01:48:51;4.50;;;4.10;;
15528;SDS011;7866;52.280;9.500;2023-04-15T01:53:53;5.90;;;5.30;;
15528;SDS011;7866;52.280;9.500;2023-04-15T01:58:57;6.10;;;5.27;;
15528;SDS011;7866;52.280;9.500;2023-04-15T02:03:59;6.07;;;5.33;;
15528;SDS011;7866;52.280;9.500;2023-04-15T02:09:01;5.57;;;4.60;;
15528;SDS011;7866;52.280;9.500;2023-04-15T02:14:04;5.27;;;4.77;;
15528;SDS011;7866;52.280;9.500;2023-04-15T02:19:06;6.57;;;5.97;;
15528;SDS011;7866;52.280;9.500;2023-04-15T02:24:08;6.73;;;6.00;;
15528;SDS011;7866;52.280;9.500;2023-04-15T02:29:12;8.30;;;7.50;;
15528;SDS011;7866;52.280;9.500;2023-04-15T02:34:14;7.57;;;6.87;;
15528;SDS011;7866;52.280;9.500;2023-04-15T02:39:16;9.83;;;8.90;;
15528;SDS011;7866;52.280;9.500;2023-04-15T02:44:19;9.10;;;8.20;;
15528;SDS011;7866;52.280;9.500;2023-04-15T02:49:22;8.77;;;7.90;;
15528;SDS011;7866;52.280;9.500;2023-04-15T02:54:24;9.13;;;8.20;;
15528;SDS011;7866;52.280;9.500;2023-04-15T02:59:29;10.10;;;9.20;;
15528;SDS011;7866;52.280;9.500;2023-04-15T03:04:30;9.23;;;8.00;;
15528;SDS011;7866;52.280;9.500;2023-04-15T03:09:32;9.27;;;8.17;;
15528;SDS011;7866;52.280;9.500;2023-04-15T03:14:36;9.60;;;8.43;;
15528;SDS011;7866;52.280;9.500;2023-04-15T03:19:38;9.50;;;8.50;;
15528;SDS011;7866;52.280;9.500;2023-04-15T03:24:40;8.50;;;7.63;;
15528;SDS011;7866;52.280;9.500;2023-04-15T03:29:43;9.73;;;7.67;;
15528;SDS011;7866;52.280;9.500;2023-04-15T03:34:44;9.33;;;8.13;;
15528;SDS011;7866;52.280;9.500;2023-04-15T03:39:46;8.63;;;7.73;;
15528;SDS011;7866;52.280;9.500;2023-04-15T03:44:49;10.17;;;9.17;;
15528;SDS011;7866;52.280;9.500;2023-04-15T03:49:51;11.60;;;9.93;;
15528;SDS011;7866;52.280;9.500;2023-04-15T03:54:53;11.30;;;10.03;;
15528;SDS011;7866;52.280;9.500;2023-04-15T03:59:56;12.20;;;10.90;;
15528;SDS011;7866;52.280;9.500;2023-04-15T04:04:58;14.97;;;12.03;;
15528;SDS011;7866;52.280;9.500;2023-04-15T04:09:59;12.97;;;11.53;;
15528;SDS011;7866;52.280;9.500;2023-04-15T04:15:04;13.27;;;11.87;;
15528;SDS011;7866;52.280;9.500;2023-04-15T04:20:07;12.60;;;11.30;;
15528;SDS011;7866;52.280;9.500;2023-04-15T04:25:09;14.20;;;12.50;;
15528;SDS011;7866;52.280;9.500;2023-04-15T04:30:12;12.37;;;11.07;;
15528;SDS011;7866;52.280;9.500;2023-04-15T04:35:14;12.90;;;11.40;;
15528;SDS011;7866;52.280;9.500;2023-04-15T04:40:16;13.33;;;11.93;;
15528;SDS011;7866;52.280;9.500;2023-04-15T04:45:19;13.47;;;12.07;;
15528;SDS011;7866;52.280;9.500;2023-04-15T04:50:21;12.83;;;11.50;;
15528;SDS011;7866;52.280;9.500;2023-04-15T04:55:23;12.00;;;10.80;;
15528;SDS011;7866;52.280;9.500;2023-04-15T05:00:26;12.07;;;10.53;;
15528;SDS011;7866;52.280;9.500;2023-04-15T05:05:28;13.53;;;12.13;;
15528;SDS011;7866;52.280;9.500;2023-04-15T05:10:30;12.80;;;11.50;;
15528;SDS011;7866;52.280;9.500;2023-04-15T05:15:33;12.87;;;11.57;;
15528;SDS011;7866;52.280;9.500;2023-04-15T05:20:36;12.97;;;11.67;;
15528;SDS011;7866;52.280;9.500;2023-04-15T05:25:37;11.67;;;10.57;;
15528;SDS011;7866;52.280;9.500;2023-04-15T05:30:41;13.17;;;11.87;;
15528;SDS011;7866;52.280;9.500;2023-04-15T05:35:42;12.17;;;10.93;;
15528;SDS011;7866;52.280;9.500;2023-04-15T05:40:44;11.60;;;10.40;;
15528;SDS011;7866;52.280;9.500;2023-04-15T05:45:47;11.70;;;10.60;;
15528;SDS011;7866;52.280;9.500;2023-04-15T05:50:49;16.93;;;14.80;;
15528;SDS011;7866;52.280;9.500;2023-04-15T05:55:51;11.93;;;10.63;;
15528;SDS011;7866;52.280;9.500;2023-04-15T06:00:54;11.57;;;10.33;;
15528;SDS011;7866;52.280;9.500;2023-04-15T06:05:56;11.33;;;10.17;;
15528;SDS011;7866;52.280;9.500;2023-04-15T06:10:57;10.63;;;9.53;;
15528;SDS011;7866;52.280;9.500;2023-04-15T06:16:01;10.37;;;9.33;;
15528;SDS011;7866;52.280;9.500;2023-04-15T06:21:03;10.50;;;9.43;;
15528;SDS011;7866;52.280;9.500;2023-04-15T06:26:05;9.07;;;8.17;;
15528;SDS011;7866;52.280;9.500;2023-04-15T06:31:08;9.03;;;8.13;;
15528;SDS011;7866;52.280;9.500;2023-04-15T06:36:10;7.97;;;7.17;;
15528;SDS011;7866;52.280;9.500;2023-04-15T06:41:12;7.87;;;7.17;;
15528;SDS011;7866;52.280;9.500;2023-04-15T06:46:15;6.57;;;5.97;;
15528;SDS011;7866;52.280;9.500;2023-04-15T06:51:17;6.57;;;5.97;;
15528;SDS011;7866;52.280;9.500;2023-04-15T06:56:18;5.90;;;5.40;;
15528;SDS011;7866;52.280;9.500;2023-04-15T07:01:22;5.43;;;4.93;;
15528;SDS011;7866;52.280;9.500;2023-04-15T07:06:24;5.70;;;5.17;;
15528;SDS011;7866;52.280;9.500;2023-04-15T07:11:26;5.30;;;4.90;;
15528;SDS011;7866;52.280;9.500;2023-04-15T07:16:29;5.33;;;4.83;;
15528;SDS011;7866;52.280;9.500;2023-04-15T07:21:31;4.33;;;4.03;;
15528;SDS011;7866;52.280;9.500;2023-04-15T07:26:33;4.40;;;4.00;;
15528;SDS011;7866;52.280;9.500;2023-04-15T07:31:36;4.50;;;4.17;;
15528;SDS011;7866;52.280;9.500;2023-04-15T07:36:37;3.80;;;3.50;;
15528;SDS011;7866;52.280;9.500;2023-04-15T07:41:39;3.80;;;3.50;;
15528;SDS011;7866;52.280;9.500;2023-04-15T07:46:42;4.53;;;3.43;;
15528;SDS011;7866;52.280;9.500;2023-04-15T07:51:44;3.80;;;3.50;;
15528;SDS011;7866;52.280;9.500;2023-04-15T07:56:46;3.20;;;3.00;;
15528;SDS011;7866;52.280;9.500;2023-04-15T08:01:57;3.70;;;3.40;;
15528;SDS011;7866;52.280;9.500;2023-04-15T08:06:58;3.73;;;3.43;;
15528;SDS011;7866;52.280;9.500;2023-04-15T08:12:00;3.60;;;3.30;;
15528;SDS011;7866;52.280;9.500;2023-04-15T08:17:03;3.10;;;2.90;;
15528;SDS011;7866;52.280;9.500;2023-04-15T08:22:05;5.47;;;4.40;;
15528;SDS011;7866;52.280;9.500;2023-04-15T08:27:07;6.27;;;4.77;;
15528;SDS011;7866;52.280;9.500;2023-04-15T08:32:10;3.57;;;3.27;;
15528;SDS011;7866;52.280;9.500;2023-04-15T08:37:12;4.13;;;3.73;;
15528;SDS011;7866;52.280;9.500;2023-04-15T08:42:15;4.43;;;3.97;;
15528;SDS011;7866;52.280;9.500;2023-04-15T08:47:19;5.47;;;4.50;;
15528;SDS011;7866;52.280;9.500;2023-04-15T08:52:21;5.37;;;4.70;;
15528;SDS011;7866;52.280;9.500;2023-04-15T08:57:25;4.10;;;3.80;;
15528;SDS011;7866;52.280;9.500;2023-04-15T09:02:28;3.20;;;3.00;;
15528;SDS011;7866;52.280;9.500;2023-04-15T09:07:32;3.80;;;3.50;;
15528;SDS011;7866;52.280;9.500;2023-04-15T09:12:34;5.80;;;5.20;;
15528;SDS011;7866;52.280;9.500;2023-04-15T09:17:37;4.97;;;4.53;;
15528;SDS011;7866;52.280;9.500;2023-04-15T09:22:44;3.90;;;3.60;;
15528;SDS011;7866;52.280;9.500;2023-04-15T09:27:48;3.33;;;3.13;;
15528;SDS011;7866;52.280;9.500;2023-04-15T09:32:52;11.77;;;5.80;;
15528;SDS011;7866;52.280;9.500;2023-04-15T09:38:00;4.10;;;3.80;;
15528;SDS011;7866;52.280;9.500;2023-04-15T09:43:03;3.87;;;3.53;;
15528;SDS011;7866;52.280;9.500;2023-04-15T09:48:15;3.37;;;3.17;;
15528;SDS011;7866;52.280;9.500;2023-04-15T09:53:18;3.20;;;3.00;;
15528;SDS011;7866;52.280;9.500;2023-04-15T09:58:22;3.67;;;3.47;;
15528;SDS011;7866;52.280;9.500;2023-04-15T10:03:26;3.10;;;2.90;;
15528;SDS011;7866;52.280;9.500;2023-04-15T10:08:29;3.47;;;3.23;;
15528;SDS011;7866;52.280;9.500;2023-04-15T10:13:32;3.23;;;3.03;;
15528;SDS011;7866;52.280;9.500;2023-04-15T10:18:39;3.77;;;3.47;;
15528;SDS011;7866;52.280;9.500;2023-04-15T10:23:44;3.67;;;3.37;;
15528;SDS011;7866;52.280;9.500;2023-04-15T10:28:46;3.73;;;3.43;;
15528;SDS011;7866;52.280;9.500;2023-04-15T10:33:49;6.57;;;4.10;;
15528;SDS011;7866;52.280;9.500;2023-04-15T10:38:51;3.70;;;3.40;;
15528;SDS011;7866;52.280;9.500;2023-04-15T10:43:53;4.40;;;4.00;;
15528;SDS011;7866;52.280;9.500;2023-04-15T10:48:58;4.20;;;3.90;;
15528;SDS011;7866;52.280;9.500;2023-04-15T10:54:08;4.60;;;4.20;;
15528;SDS011;7866;52.280;9.500;2023-04-15T10:59:14;4.53;;;4.13;;
15528;SDS011;7866;52.280;9.500;2023-04-15T11:09:56;4.50;;;4.10;;
15528;SDS011;7866;52.280;9.500;2023-04-15T11:14:58;4.60;;;4.20;;
15528;SDS011;7866;52.280;9.500;2023-04-15T11:20:01;6.03;;;5.53;;
15528;SDS011;7866;52.280;9.500;2023-04-15T11:25:04;7.97;;;5.73;;
15528;SDS011;7866;52.280;9.500;2023-04-15T11:30:16;6.20;;;5.60;;
15528;SDS011;7866;52.280;9.500;2023-04-15T11:35:20;6.77;;;6.17;;
15528;SDS011;7866;52.280;9.500;2023-04-15T11:40:22;7.03;;;6.33;;
15528;SDS011;7866;52.280;9.500;2023-04-15T11:45:26;13.30;;;8.30;;
15528;SDS011;7866;52.280;9.500;2023-04-15T11:50:29;11.03;;;8.70;;
15528;SDS011;7866;52.280;9.500;2023-04-15T11:55:32;9.80;;;8.77;;
15528;SDS011;7866;52.280;9.500;2023-04-15T12:00:46;9.57;;;8.57;;
15528;SDS011;7866;52.280;9.500;2023-04-15T12:06:03;10.73;;;9.50;;
15528;SDS011;7866;52.280;9.500;2023-04-15T12:11:12;12.63;;;10.27;;
15528;SDS011;7866;52.280;9.500;2023-04-15T12:16:15;13.00;;;11.37;;
15528;SDS011;7866;52.280;9.500;2023-04-15T12:21:19;13.07;;;11.53;;
15528;SDS011;7866;52.280;9.500;2023-04-15T12:26:24;17.67;;;12.50;;
15528;SDS011;7866;52.280;9.500;2023-04-15T12:31:28;14.70;;;12.43;;
15528;SDS011;7866;52.280;9.500;2023-04-15T12:36:31;18.63;;;14.77;;
15528;SDS011;7866;52.280;9.500;2023-04-15T12:41:36;20.00;;;14.67;;
15528;SDS011;7866;52.280;9.500;2023-04-15T12:46:38;17.80;;;14.43;;
15528;SDS011;7866;52.280;9.500;2023-04-15T12:51:41;16.27;;;13.63;;
15528;SDS011;7866;52.280;9.500;2023-04-15T12:56:43;19.33;;;15.03;;
15528;SDS011;7866;52.280;9.500;2023-04-15T13:01:45;21.10;;;16.43;;
15528;SDS011;7866;52.280;9.500;2023-04-15T13:06:49;20.53;;;15.67;;
15528;SDS011;7866;52.280;9.500;2023-04-15T13:11:51;24.47;;;18.00;;
15528;SDS011;7866;52.280;9.500;2023-04-15T13:16:53;24.40;;;19.00;;
15528;SDS011;7866;52.280;9.500;2023-04-15T13:21:56;29.73;;;19.97;;
15528;SDS011;7866;52.280;9.500;2023-04-15T13:26:58;25.60;;;19.63;;
15528;SDS011;7866;52.280;9.500;2023-04-15T13:31:59;29.20;;;21.60;;
15528;SDS011;7866;52.280;9.500;2023-04-15T13:37:06;28.73;;;21.70;;
15528;SDS011;7866;52.280;9.500;2023-04-15T13:42:08;32.33;;;23.43;;
15528;SDS011;7866;52.280;9.500;2023-04-15T13:47:09;27.53;;;21.37;;
15528;SDS011;7866;52.280;9.500;2023-04-15T13:52:13;30.13;;;23.33;;
15528;SDS011;7866;52.280;9.500;2023-04-15T13:57:15;30.53;;;23.60;;
15528;SDS011;7866;52.280;9.500;2023-04-15T14:02:17;30.00;;;24.20;;
15528;SDS011;7866;52.280;9.500;2023-04-15T14:07:20;27.47;;;22.83;;
15528;SDS011;7866;52.280;9.500;2023-04-15T14:12:21;29.73;;;21.93;;
15528;SDS011;7866;52.280;9.500;2023-04-15T14:17:23;28.10;;;21.17;;
15528;SDS011;7866;52.280;9.500;2023-04-15T14:22:26;23.80;;;18.43;;
15528;SDS011;7866;52.280;9.500;2023-04-15T14:27:27;22.00;;;18.57;;
15528;SDS011;7866;52.280;9.500;2023-04-15T14:32:29;25.37;;;21.07;;
15528;SDS011;7866;52.280;9.500;2023-04-15T14:37:32;23.40;;;18.53;;
15528;SDS011;7866;52.280;9.500;2023-04-15T14:42:34;25.27;;;21.93;;
15528;SDS011;7866;52.280;9.500;2023-04-15T14:47:37;27.77;;;21.23;;
15528;SDS011;7866;52.280;9.500;2023-04-15T14:52:40;25.17;;;21.03;;
15528;SDS011;7866;52.280;9.500;2023-04-15T14:57:41;24.53;;;20.43;;
15528;SDS011;7866;52.280;9.500;2023-04-15T15:02:43;27.27;;;21.07;;
15528;SDS011;7866;52.280;9.500;2023-04-15T15:07:47;27.33;;;20.40;;
15528;SDS011;7866;52.280;9.500;2023-04-15T15:12:49;24.73;;;20.47;;
15528;SDS011;7866;52.280;9.500;2023-04-15T15:17:51;25.27;;;20.67;;
15528;SDS011;7866;52.280;9.500;2023-04-15T15:22:55;24.37;;;20.23;;
15528;SDS011;7866;52.280;9.500;2023-04-15T15:27:56;25.33;;;19.93;;
15528;SDS011;7866;52.280;9.500;2023-04-15T15:32:58;23.90;;;19.47;;
15528;SDS011;7866;52.280;9.500;2023-04-15T15:38:01;28.00;;;21.53;;
15528;SDS011;7866;52.280;9.500;2023-04-15T15:43:03;23.73;;;19.97;;
15528;SDS011;7866;52.280;9.500;2023-04-15T15:48:05;26.13;;;19.87;;
15528;SDS011;7866;52.280;9.500;2023-04-15T15:53:08;23.60;;;19.97;;
15528;SDS011;7866;52.280;9.500;2023-04-15T15:58:11;30.60;;;21.47;;
15528;SDS011;7866;52.280;9.500;2023-04-15T16:03:13;25.23;;;20.97;;
15528;SDS011;7866;52.280;9.500;2023-04-15T16:08:16;26.53;;;21.50;;
15528;SDS011;7866;52.280;9.500;2023-04-15T16:13:19;25.17;;;20.13;;
15528;SDS011;7866;52.280;9.500;2023-04-15T16:18:20;25.67;;;21.40;;
15528;SDS011;7866;52.280;9.500;2023-04-15T16:23:23;22.57;;;19.07;;
15528;SDS011;7866;52.280;9.500;2023-04-15T16:28:25;28.63;;;22.97;;
15528;SDS011;7866;52.280;9.500;2023-04-15T16:33:27;24.80;;;21.63;;
15528;SDS011;7866;52.280;9.500;2023-04-15T16:38:30;25.90;;;21.37;;
15528;SDS011;7866;52.280;9.500;2023-04-15T16:43:31;29.30;;;23.50;;
15528;SDS011;7866;52.280;9.500;2023-04-15T16:48:33;22.43;;;19.53;;
15528;SDS011;7866;52.280;9.500;2023-04-15T16:53:36;23.47;;;20.53;;
15528;SDS011;7866;52.280;9.500;2023-04-15T16:58:37;23.80;;;20.27;;
15528;SDS011;7866;52.280;9.500;2023-04-15T17:03:39;26.83;;;22.20;;
15528;SDS011;7866;52.280;9.500;2023-04-15T17:08:42;23.37;;;20.30;;
15528;SDS011;7866;52.280;9.500;2023-04-15T17:13:45;25.33;;;21.07;;
15528;SDS011;7866;52.280;9.500;2023-04-15T17:18:48;26.63;;;22.90;;
15528;SDS011;7866;52.280;9.500;2023-04-15T17:23:51;24.87;;;21.87;;
15528;SDS011;7866;52.280;9.500;2023-04-15T17:28:53;27.80;;;22.57;;
15528;SDS011;7866;52.280;9.500;2023-04-15T17:33:55;24.33;;;20.87;;
15528;SDS011;7866;52.280;9.500;2023-04-15T17:38:58;26.00;;;21.27;;
15528;SDS011;7866;52.280;9.500;2023-04-15T17:43:59;26.23;;;20.90;;
15528;SDS011;7866;52.280;9.500;2023-04-15T17:49:01;25.93;;;22.70;;
15528;SDS011;7866;52.280;9.500;2023-04-15T17:54:06;27.23;;;23.37;;
15528;SDS011;7866;52.280;9.500;2023-04-15T17:59:07;26.33;;;22.67;;
15528;SDS011;7866;52.280;9.500;2023-04-15T18:04:09;28.73;;;23.57;;
15528;SDS011;7866;52.280;9.500;2023-04-15T18:09:12;28.37;;;23.63;;
15528;SDS011;7866;52.280;9.500;2023-04-15T18:14:14;25.27;;;22.30;;
15528;SDS011;7866;52.280;9.500;2023-04-15T18:19:16;24.20;;;21.60;;
15528;SDS011;7866;52.280;9.500;2023-04-15T18:24:19;24.87;;;21.30;;
15528;SDS011;7866;52.280;9.500;2023-04-15T18:29:20;22.73;;;20.20;;
15528;SDS011;7866;52.280;9.500;2023-04-15T18:34:22;24.77;;;21.57;;
15528;SDS011;7866;52.280;9.500;2023-04-15T18:39:25;19.43;;;17.13;;
15528;SDS011;7866;52.280;9.500;2023-04-15T18:44:28;23.57;;;21.00;;
15528;SDS011;7866;52.280;9.500;2023-04-15T18:49:30;22.63;;;19.47;;
15528;SDS011;7866;52.280;9.500;2023-04-15T18:54:33;25.60;;;19.80;;
15528;SDS011;7866;52.280;9.500;2023-04-15T18:59:35;22.70;;;20.40;;
15528;SDS011;7866;52.280;9.500;2023-04-15T19:04:37;22.77;;;19.93;;
15528;SDS011;7866;52.280;9.500;2023-04-15T19:09:40;21.20;;;18.67;;
15528;SDS011;7866;52.280;9.500;2023-04-15T19:14:42;20.17;;;17.97;;
15528;SDS011;7866;52.280;9.500;2023-04-15T19:19:44;20.37;;;18.07;;
15528;SDS011;7866;52.280;9.500;2023-04-15T19:24:47;22.17;;;18.43;;
15528;SDS011;7866;52.280;9.500;2023-04-15T19:29:48;20.10;;;16.87;;
15528;SDS011;7866;52.280;9.500;2023-04-15T19:34:50;19.53;;;17.30;;
15528;SDS011;7866;52.280;9.500;2023-04-15T19:39:54;19.27;;;17.17;;
15528;SDS011;7866;52.280;9.500;2023-04-15T19:44:55;20.40;;;18.30;;
15528;SDS011;7866;52.280;9.500;2023-04-15T19:49:57;22.00;;;19.80;;
15528;SDS011;7866;52.280;9.500;2023-04-15T19:55:00;21.30;;;19.00;;
15528;SDS011;7866;52.280;9.500;2023-04-15T20:00:02;22.87;;;19.47;;
15528;SDS011;7866;52.280;9.500;2023-04-15T20:05:06;19.80;;;17.80;;
15528;SDS011;7866;52.280;9.500;2023-04-15T20:10:10;19.57;;;17.57;;
15528;SDS011;7866;52.280;9.500;2023-04-15T20:15:12;20.10;;;18.10;;
15528;SDS011;7866;52.280;9.500;2023-04-15T20:20:14;20.13;;;17.60;;
15528;SDS011;7866;52.280;9.500;2023-04-15T20:25:17;18.57;;;16.57;;
15528;SDS011;7866;52.280;9.500;2023-04-15T20:30:19;20.17;;;17.97;;
15528;SDS011;7866;52.280;9.500;2023-04-15T20:35:21;18.03;;;15.97;;
15528;SDS011;7866;52.280;9.500;2023-04-15T20:40:25;19.43;;;17.43;;
15528;SDS011;7866;52.280;9.500;2023-04-15T20:45:27;17.87;;;16.07;;
15528;SDS011;7866;52.280;9.500;2023-04-15T20:50:29;16.60;;;14.80;;
15528;SDS011;7866;52.280;9.500;2023-04-15T20:55:32;16.43;;;14.70;;
15528;SDS011;7866;52.280;9.500;2023-04-15T21:00:33;16.33;;;14.60;;
15528;SDS011;7866;52.280;9.500;2023-04-15T21:05:35;18.47;;;15.30;;
15528;SDS011;7866;52.280;9.500;2023-04-15T21:10:38;16.13;;;14.47;;
15528;SDS011;7866;52.280;9.500;2023-04-15T21:15:40;16.00;;;14.30;;
15528;SDS011;7866;52.280;9.500;2023-04-15T21:20:44;16.37;;;14.20;;
15528;SDS011;7866;52.280;9.500;2023-04-15T21:25:47;17.20;;;15.33;;
15528;SDS011;7866;52.280;9.500;2023-04-15T21:30:48;14.93;;;13.43;;
15528;SDS011;7866;52.280;9.500;2023-04-15T21:35:50;15.10;;;13.50;;
15528;SDS011;7866;52.280;9.500;2023-04-15T21:40:54;16.03;;;14.33;;
15528;SDS011;7866;52.280;9.500;2023-04-15T21:45:55;15.10;;;13.50;;
15528;SDS011;7866;52.280;9.500;2023-04-15T21:50:57;14.57;;;13.07;;
15528;SDS011;7866;52.280;9.500;2023-04-15T21:56:00;13.57;;;12.37;;
15528;SDS011;7866;52.280;9.500;2023-04-15T22:01:02;17.00;;;14.50;;
15528;SDS011;7866;52.280;9.500;2023-04-15T22:06:04;15.53;;;13.53;;
15528;SDS011;7866;52.280;9.500;2023-04-15T22:11:07;12.77;;;11.47;;
15528;SDS011;7866;52.280;9.500;2023-04-15T22:16:09;15.43;;;13.93;;
15528;SDS011;7866;52.280;9.500;2023-04-15T22:21:11;15.10;;;13.50;;
15528;SDS011;7866;52.280;9.500;2023-04-15T22:26:15;14.90;;;13.40;;
15528;SDS011;7866;52.280;9.500;2023-04-15T22:31:16;15.53;;;13.93;;
15528;SDS011;7866;52.280;9.500;2023-04-15T22:36:18;14.07;;;12.77;;
15528;SDS011;7866;52.280;9.500;2023-04-15T22:41:21;15.07;;;12.97;;
15528;SDS011;7866;52.280;9.500;2023-04-15T22:46:23;14.60;;;13.10;;
15528;SDS011;7866;52.280;9.500;2023-04-15T22:51:24;15.27;;;13.77;;
15528;SDS011;7866;52.280;9.500;2023-04-15T22:56:28;15.33;;;13.80;;
15528;SDS011;7866;52.280;9.500;2023-04-15T23:01:30;15.87;;;14.30;;
15528;SDS011;7866;52.280;9.500;2023-04-15T23:06:32;16.70;;;14.50;;
15528;SDS011;7866;52.280;9.500;2023-04-15T23:11:35;14.63;;;13.23;;
15528;SDS011;7866;52.280;9.500;2023-04-15T23:16:37;15.60;;;14.10;;
15528;SDS011;7866;52.280;9.500;2023-04-15T23:21:38;15.67;;;14.07;;
15528;SDS011;7866;52.280;9.500;2023-04-15T23:26:41;14.60;;;13.10;;
15528;SDS011;7866;52.280;9.500;2023-04-15T23:31:43;14.80;;;13.40;;
15528;SDS011;7866;52.280;9.500;2023-04-15T23:36:45;13.90;;;12.50;;
15528;SDS011;7866;52.280;9.500;2023-04-15T23:41:48;14.27;;;12.97;;
15528;SDS011;7866;52.280;9.500;2023-04-15T23:46:49;15.57;;;14.00;;
15528;SDS011;7866;52.280;9.500;2023-04-15T23:51:51;17.70;;;13.73;;
15528;SDS011;7866;52.280;9.500;2023-04-15T23:56:54;14.97;;;13.47;;
